This is the latest recevied weather packets stored in our database for station/object ENBN. If no packets are shown the sender has not sent any weather packets the latest 10 day(s).
| Time | Temp. | Humidity | Pressure | Rain* | Wind** | Luminosity | Snow |
|---|---|---|---|---|---|---|---|
| 1777735988 | 5.56° C | 75% | 1009 hPa | - | - | - | - |
| 1777734189 | 2.78° C | 86% | 1009 hPa | - | - | - | - |
| 1777732388 | 6.67° C | 65% | 1009 hPa | - | - | - | - |
| 1777730588 | 5° C | 70% | 1009 hPa | - | - | - | - |
| 1777728788 | 5.56° C | 65% | 1009 hPa | - | - | - | - |
| 1777726989 | 5.56° C | 65% | 1009 hPa | - | - | - | - |
| 1777725188 | 7.78° C | 65% | 1009 hPa | - | - | - | - |
| 1777723389 | 6.67° C | 56% | 1009 hPa | - | - | - | - |
| 1777721590 | 5.56° C | 70% | 1009 hPa | - | - | - | - |
| 1777719789 | 6.67° C | 65% | 1008 hPa | - | - | - | - |
| 1777717988 | 5.56° C | 70% | 1008 hPa | - | - | - | - |
| 1777716189 | 6.67° C | 56% | 1008 hPa | - | - | - | - |
| 1777714390 | 6.67° C | 56% | 1008 hPa | - | - | - | - |
| 1777712588 | 5.56° C | 56% | 1008 hPa | - | - | - | - |
| 1777710788 | 6.67° C | 60% | 1008 hPa | - | - | - | - |
| 1777708987 | 5.56° C | 60% | 1007 hPa | - | - | - | - |
| 1777707187 | 5.56° C | 65% | 1007 hPa | - | - | - | - |
| 1777705390 | 5° C | 80% | 1007 hPa | - | - | - | - |
| 1777703588 | 5.56° C | 75% | 1007 hPa | - | - | - | - |
| 1777701788 | 5.56° C | 75% | 1006 hPa | - | - | - | - |
| 1777699988 | 5.56° C | 81% | 1006 hPa | - | - | - | - |
| 1777698188 | 5.56° C | 93% | 1006 hPa | - | - | - | - |
| 1777696409 | 5.56° C | 93% | 1005 hPa | - | - | - | - |
| 1777694588 | 6.67° C | 93% | 1005 hPa | - | - | - | - |
| 1777692791 | 6.67° C | 93% | 1005 hPa | - | - | - | - |
* Rain since midnight (hover to see other rain measurements)
** Current wind speed in m/s (hover to see current wind gust speed)